Benjamas Naree — 9V9405 — position and weather

sailwx.info

Track history (hours):
 
Tides and Currents Weather Stations Pressure Air Temp Water Temp Dewpoint Dewpoint Depression Visibility Wind Speed Wind Dir Waves Ship Positions

Benjamas Naree

Last reported at 2014-Sep-15 21:16 UTC. Time now 2014-Sep-16 11:30 UTC.
Position N 34°01' E 130°52'.

Length 181 m; draft 7.2 m.

Type: Cargo ship. MMSI: 566377000.

Date/timePositionNaut miles runAvg speedWind from/ knotsBaromVisibWave heightAir tempDewpointWater temp
2014-Sep-15 21:16N 34°01' E 130°52'1 0.0
2014-Sep-15 05:28N 34°02' E 130°52'17 7.8
2014-Sep-15 03:18N 34°03' E 130°31'46311.3
2014-Sep-13 10:19N 29°56' E 122°50'1111.8
2014-Sep-13 09:23N 29°49' E 122°40'1012.0
2014-Sep-13 08:33N 29°46' E 122°29'1111.1
2014-Sep-13 07:33N 29°47' E 122°16'10 9.7
2014-Sep-13 06:33N 29°49' E 122°06'1 0.4
2014-Sep-13 03:33N 29°48' E 122°05'2 2.1
2014-Sep-13 02:24N 29°47' E 122°02'2 1.5
2014-Sep-13 01:09N 29°47' E 122°04'0 0.0
2014-Sep-13 00:15N 29°47' E 122°04'0 0.0
2014-Sep-12 21:15N 29°47' E 122°04'0 0.0
2014-Sep-12 20:33N 29°47' E 122°04'0 0.0
2014-Sep-12 18:27N 29°47' E 122°04'0 0.0
2014-Sep-12 15:09N 29°47' E 122°04'0 0.0
2014-Sep-12 13:33N 29°47' E 122°04'0 0.0
2014-Sep-12 12:27N 29°47' E 122°04'0 0.0
2014-Sep-12 10:27N 29°47' E 122°04'0 0.0
2014-Sep-12 09:21N 29°47' E 122°04'0 0.0
2014-Sep-12 08:21N 29°47' E 122°04'0 0.0
2014-Sep-12 07:33N 29°47' E 122°04'0 0.0
2014-Sep-12 06:21N 29°46' E 122°04'0 0.0
2014-Sep-12 05:15N 29°47' E 122°04'0 0.0
2014-Sep-12 03:21N 29°47' E 122°04'0 0.0
2014-Sep-12 02:33N 29°47' E 122°04'0 0.0
2014-Sep-12 00:33N 29°47' E 122°04'0 0.0
2014-Sep-11 23:21N 29°47' E 122°04'0 0.0
2014-Sep-11 22:21N 29°47' E 122°04'0 0.0
2014-Sep-11 21:27N 29°47' E 122°04'0 0.0
2014-Sep-11 20:15N 29°47' E 122°04'0 0.0
2014-Sep-11 18:33N 29°47' E 122°04'0 0.0
2014-Sep-11 17:09N 29°47' E 122°04'0 0.0
2014-Sep-11 15:27N 29°47' E 122°04'0 0.0
2014-Sep-11 13:21N 29°47' E 122°04'0 0.0
2014-Sep-11 12:33N 29°47' E 122°04'0 0.0
2014-Sep-11 11:21N 29°47' E 122°04'0 0.0
2014-Sep-11 03:27N 29°47' E 122°04'0 0.0
2014-Sep-11 02:21N 29°47' E 122°04'0 0.0
2014-Sep-11 01:27N 29°47' E 122°04'0 0.0
2014-Sep-10 22:33N 29°47' E 122°04'0 0.0
2014-Sep-10 21:21N 29°47' E 122°04'0 0.0
2014-Sep-10 18:27N 29°47' E 122°04'0 0.0
2014-Sep-10 17:33N 29°47' E 122°04'0 0.0
2014-Sep-10 16:09N 29°47' E 122°04'0 0.0
2014-Sep-10 14:21N 29°47' E 122°04'0 0.0
2014-Sep-10 13:27N 29°47' E 122°04'0 0.0
2014-Sep-10 07:33N 29°47' E 122°04'0 0.0
2014-Sep-10 05:21N 29°47' E 122°04'0 0.0
2014-Sep-10 03:27N 29°47' E 122°04'0 0.0
2014-Sep-10 01:21N 29°47' E 122°04'0 0.1
2014-Sep-10 00:21N 29°46' E 122°04'0 0.0
2014-Sep-09 21:33N 29°46' E 122°04'0 0.0
2014-Sep-09 18:33N 29°46' E 122°04'0 0.0
2014-Sep-09 17:27N 29°46' E 122°04'0 0.0
2014-Sep-09 13:15N 29°46' E 122°04'0 0.0
2014-Sep-09 10:27N 29°46' E 122°04'0 0.0
2014-Sep-09 09:33N 29°46' E 122°04'0 0.0
2014-Sep-09 08:09N 29°46' E 122°04'0 0.0
2014-Sep-09 07:33N 29°46' E 122°04'0 0.0
2014-Sep-09 06:09N 29°46' E 122°04'0 0.0
2014-Sep-09 02:27N 29°46' E 122°04'0 0.0
2014-Sep-08 01:16N 29°46' E 122°04'0 0.0
2014-Sep-07 22:10N 29°46' E 122°04'0 0.0
2014-Sep-07 21:22N 29°46' E 122°04'0 0.0
2014-Sep-07 20:16N 29°46' E 122°04'0 0.0
2014-Sep-07 19:28N 29°46' E 122°04'0 0.0
2014-Sep-07 18:05N 29°46' E 122°04'0 0.0
2014-Sep-07 16:28N 29°46' E 122°04'0 0.0
2014-Sep-07 14:22N 29°46' E 122°04'0 0.0
2014-Sep-06 21:17N 29°46' E 122°04'0 0.0
2014-Sep-06 19:23N 29°46' E 122°04'0 0.0
2014-Sep-06 18:20N 29°46' E 122°04'0 0.0
2014-Sep-06 17:23N 29°46' E 122°04'0 0.0
2014-Sep-06 16:17N 29°46' E 122°04'0 0.0
2014-Sep-06 15:17N 29°47' E 122°04'0 0.1
2014-Sep-06 12:26N 29°46' E 122°04'0 0.0
2014-Sep-06 08:14N 29°46' E 122°04'0 0.0
2014-Sep-06 07:26N 29°46' E 122°04'0 0.0
2014-Sep-06 05:08N 29°46' E 122°04'0 0.0
2014-Sep-06 04:14N 29°46' E 122°04'0 0.0
2014-Sep-06 03:08N 29°46' E 122°04'0 0.0
2014-Sep-06 02:14N 29°46' E 122°04'0 0.0
2014-Sep-06 00:32N 29°46' E 122°04'0 0.0
2014-Sep-05 23:32N 29°46' E 122°04'  
Track history (hours):
 
Tides and Currents Weather Stations Pressure Air Temp Water Temp Dewpoint Dewpoint Depression Visibility Wind Speed Wind Dir Waves Ship Positions

Benjamas Naree

Last reported at 2014-Sep-15 21:16 UTC. Time now 2014-Sep-16 11:30 UTC.
Position N 34°01' E 130°52'.

Length 181 m; draft 7.2 m.

Type: Cargo ship. MMSI: 566377000.

Date/timePositionNaut miles runAvg speedWind from/ knotsBaromVisibWave heightAir tempDewpointWater temp
2014-Sep-15 21:16N 34°01' E 130°52'1 0.0
2014-Sep-15 05:28N 34°02' E 130°52'17 7.8
2014-Sep-15 03:18N 34°03' E 130°31'46311.3
2014-Sep-13 10:19N 29°56' E 122°50'1111.8
2014-Sep-13 09:23N 29°49' E 122°40'1012.0
2014-Sep-13 08:33N 29°46' E 122°29'1111.1
2014-Sep-13 07:33N 29°47' E 122°16'10 9.7
2014-Sep-13 06:33N 29°49' E 122°06'1 0.4
2014-Sep-13 03:33N 29°48' E 122°05'2 2.1
2014-Sep-13 02:24N 29°47' E 122°02'2 1.5
2014-Sep-13 01:09N 29°47' E 122°04'0 0.0
2014-Sep-13 00:15N 29°47' E 122°04'0 0.0
2014-Sep-12 21:15N 29°47' E 122°04'0 0.0
2014-Sep-12 20:33N 29°47' E 122°04'0 0.0
2014-Sep-12 18:27N 29°47' E 122°04'0 0.0
2014-Sep-12 15:09N 29°47' E 122°04'0 0.0
2014-Sep-12 13:33N 29°47' E 122°04'0 0.0
2014-Sep-12 12:27N 29°47' E 122°04'0 0.0
2014-Sep-12 10:27N 29°47' E 122°04'0 0.0
2014-Sep-12 09:21N 29°47' E 122°04'0 0.0
2014-Sep-12 08:21N 29°47' E 122°04'0 0.0
2014-Sep-12 07:33N 29°47' E 122°04'0 0.0
2014-Sep-12 06:21N 29°46' E 122°04'0 0.0
2014-Sep-12 05:15N 29°47' E 122°04'0 0.0
2014-Sep-12 03:21N 29°47' E 122°04'0 0.0
2014-Sep-12 02:33N 29°47' E 122°04'0 0.0
2014-Sep-12 00:33N 29°47' E 122°04'0 0.0
2014-Sep-11 23:21N 29°47' E 122°04'0 0.0
2014-Sep-11 22:21N 29°47' E 122°04'0 0.0
2014-Sep-11 21:27N 29°47' E 122°04'0 0.0
2014-Sep-11 20:15N 29°47' E 122°04'0 0.0
2014-Sep-11 18:33N 29°47' E 122°04'0 0.0
2014-Sep-11 17:09N 29°47' E 122°04'0 0.0
2014-Sep-11 15:27N 29°47' E 122°04'0 0.0
2014-Sep-11 13:21N 29°47' E 122°04'0 0.0
2014-Sep-11 12:33N 29°47' E 122°04'0 0.0
2014-Sep-11 11:21N 29°47' E 122°04'0 0.0
2014-Sep-11 03:27N 29°47' E 122°04'0 0.0
2014-Sep-11 02:21N 29°47' E 122°04'0 0.0
2014-Sep-11 01:27N 29°47' E 122°04'0 0.0
2014-Sep-10 22:33N 29°47' E 122°04'0 0.0
2014-Sep-10 21:21N 29°47' E 122°04'0 0.0
2014-Sep-10 18:27N 29°47' E 122°04'0 0.0
2014-Sep-10 17:33N 29°47' E 122°04'0 0.0
2014-Sep-10 16:09N 29°47' E 122°04'0 0.0
2014-Sep-10 14:21N 29°47' E 122°04'0 0.0
2014-Sep-10 13:27N 29°47' E 122°04'0 0.0
2014-Sep-10 07:33N 29°47' E 122°04'0 0.0
2014-Sep-10 05:21N 29°47' E 122°04'0 0.0
2014-Sep-10 03:27N 29°47' E 122°04'0 0.0
2014-Sep-10 01:21N 29°47' E 122°04'0 0.1
2014-Sep-10 00:21N 29°46' E 122°04'0 0.0
2014-Sep-09 21:33N 29°46' E 122°04'0 0.0
2014-Sep-09 18:33N 29°46' E 122°04'0 0.0
2014-Sep-09 17:27N 29°46' E 122°04'0 0.0
2014-Sep-09 13:15N 29°46' E 122°04'0 0.0
2014-Sep-09 10:27N 29°46' E 122°04'0 0.0
2014-Sep-09 09:33N 29°46' E 122°04'0 0.0
2014-Sep-09 08:09N 29°46' E 122°04'0 0.0
2014-Sep-09 07:33N 29°46' E 122°04'0 0.0
2014-Sep-09 06:09N 29°46' E 122°04'0 0.0
2014-Sep-09 02:27N 29°46' E 122°04'0 0.0
2014-Sep-08 01:16N 29°46' E 122°04'0 0.0
2014-Sep-07 22:10N 29°46' E 122°04'0 0.0
2014-Sep-07 21:22N 29°46' E 122°04'0 0.0
2014-Sep-07 20:16N 29°46' E 122°04'0 0.0
2014-Sep-07 19:28N 29°46' E 122°04'0 0.0
2014-Sep-07 18:05N 29°46' E 122°04'0 0.0
2014-Sep-07 16:28N 29°46' E 122°04'0 0.0
2014-Sep-07 14:22N 29°46' E 122°04'0 0.0
2014-Sep-06 21:17N 29°46' E 122°04'0 0.0
2014-Sep-06 19:23N 29°46' E 122°04'0 0.0
2014-Sep-06 18:20N 29°46' E 122°04'0 0.0
2014-Sep-06 17:23N 29°46' E 122°04'0 0.0
2014-Sep-06 16:17N 29°46' E 122°04'0 0.0
2014-Sep-06 15:17N 29°47' E 122°04'0 0.1
2014-Sep-06 12:26N 29°46' E 122°04'0 0.0
2014-Sep-06 08:14N 29°46' E 122°04'0 0.0
2014-Sep-06 07:26N 29°46' E 122°04'0 0.0
2014-Sep-06 05:08N 29°46' E 122°04'0 0.0
2014-Sep-06 04:14N 29°46' E 122°04'0 0.0
2014-Sep-06 03:08N 29°46' E 122°04'0 0.0
2014-Sep-06 02:14N 29°46' E 122°04'0 0.0
2014-Sep-06 00:32N 29°46' E 122°04'0 0.0
2014-Sep-05 23:32N 29°46' E 122°04'  

Dump ship's entire track history